createdAt,value
2022-09-02T00:01:11.395Z,101671.19
2022-09-02T00:03:38.269Z,101677.59
2022-09-02T00:06:05.732Z,101673.31
2022-09-02T00:08:32.513Z,101646.50
2022-09-02T00:11:01.234Z,101633.53
2022-09-02T00:13:29.230Z,101665.16
2022-09-02T00:15:56.417Z,101659.44
2022-09-02T00:18:24.084Z,101656.75
2022-09-02T00:20:51.159Z,101638.44
2022-09-02T00:23:18.340Z,101652.75
2022-09-02T00:25:45.269Z,101651.31
2022-09-02T00:28:14.278Z,101633.44
2022-09-02T00:30:42.494Z,101650.53
2022-09-02T00:33:10.935Z,101645.00
2022-09-02T00:35:37.882Z,101595.50
2022-09-02T00:38:05.756Z,101639.00
2022-09-02T00:40:33.982Z,101616.56
2022-09-02T00:43:00.894Z,101605.19
2022-09-02T00:45:27.734Z,101581.38
2022-09-02T00:47:54.580Z,101618.41
2022-09-02T00:50:27.158Z,101622.91
2022-09-02T00:53:00.790Z,101630.72
2022-09-02T00:55:31.621Z,101631.41
2022-09-02T00:58:04.130Z,101636.63
2022-09-02T01:00:42.551Z,101614.16
2022-09-02T01:03:13.097Z,101625.44
2022-09-02T01:05:45.938Z,101621.72
2022-09-02T01:08:25.204Z,101590.84
2022-09-02T01:10:55.700Z,101576.78
2022-09-02T01:13:26.671Z,101616.56
2022-09-02T01:15:59.186Z,101607.38
2022-09-02T01:18:29.486Z,101616.81
2022-09-02T01:20:58.399Z,101604.09
2022-09-02T01:23:25.767Z,101598.03
2022-09-02T01:25:55.383Z,101606.88
2022-09-02T01:28:23.171Z,101599.97
2022-09-02T01:30:53.850Z,101614.75
2022-09-02T01:33:23.085Z,101614.25
2022-09-02T01:35:52.741Z,101588.34
2022-09-02T01:38:20.493Z,101597.03
2022-09-02T01:40:47.597Z,101598.63
2022-09-02T01:43:19.023Z,101607.06
2022-09-02T01:45:49.091Z,101582.25
2022-09-02T01:48:21.523Z,101599.31
2022-09-02T01:50:57.785Z,101590.69
2022-09-02T01:53:24.907Z,101592.59
2022-09-02T01:55:52.107Z,101558.59
2022-09-02T01:58:19.577Z,101593.75
2022-09-02T02:00:47.813Z,101569.72
2022-09-02T02:03:15.386Z,101525.94
2022-09-02T02:05:42.164Z,101568.31
2022-09-02T02:08:09.630Z,101583.47
2022-09-02T02:10:37.125Z,101558.81
2022-09-02T02:13:03.940Z,101557.75
2022-09-02T02:17:56.737Z,101553.84
2022-09-02T02:20:23.959Z,101578.69
2022-09-02T02:22:50.800Z,101536.78
2022-09-02T02:25:18.984Z,101559.53
2022-09-02T02:27:45.860Z,101549.78
2022-09-02T02:30:15.007Z,101570.66
2022-09-02T02:32:42.467Z,101527.53
2022-09-02T02:35:09.458Z,101531.66
2022-09-02T02:37:36.587Z,101527.63
2022-09-02T02:40:05.385Z,101529.44
2022-09-02T02:42:32.154Z,101520.00
2022-09-02T02:44:59.255Z,101521.03
2022-09-02T02:47:26.996Z,101544.72
2022-09-02T02:49:53.986Z,101501.56
2022-09-02T02:52:20.990Z,101532.94
2022-09-02T02:54:47.804Z,101514.94
2022-09-02T02:57:14.506Z,101506.56
2022-09-02T02:59:41.287Z,101526.34
2022-09-02T03:02:08.180Z,101511.38
2022-09-02T03:04:35.667Z,101545.97
2022-09-02T03:07:03.213Z,101550.16
2022-09-02T03:09:29.984Z,101505.94
2022-09-02T03:11:56.703Z,101542.53
2022-09-02T03:14:24.353Z,101509.97
2022-09-02T03:16:51.067Z,101502.31
2022-09-02T03:19:18.139Z,101511.19
2022-09-02T03:21:44.885Z,101475.44
2022-09-02T03:24:12.964Z,101494.47
2022-09-02T03:26:41.853Z,101508.13
2022-09-02T03:29:08.707Z,101521.31
2022-09-02T03:31:36.153Z,101476.97
2022-09-02T03:34:04.448Z,101488.28
2022-09-02T03:36:36.031Z,101520.06
2022-09-02T03:39:06.952Z,101512.78
2022-09-02T03:41:36.980Z,101473.22
2022-09-02T03:44:05.591Z,101489.34
2022-09-02T03:46:32.350Z,101475.91
2022-09-02T03:48:59.067Z,101484.00
2022-09-02T03:51:27.337Z,101512.19
2022-09-02T03:53:54.866Z,101499.56
2022-09-02T03:56:22.782Z,101470.34
2022-09-02T03:58:51.442Z,101449.72
2022-09-02T04:01:24.891Z,101428.97
2022-09-02T04:03:54.800Z,101474.22
2022-09-02T04:06:25.217Z,101438.41
2022-09-02T04:08:53.281Z,101481.66
2022-09-02T04:11:21.964Z,101449.22
2022-09-02T04:13:51.183Z,101459.53
2022-09-02T04:16:21.909Z,101441.94
2022-09-02T04:18:48.698Z,101428.28
2022-09-02T04:21:16.125Z,101471.91
2022-09-02T04:23:53.080Z,101434.66
2022-09-02T04:26:21.922Z,101437.06
2022-09-02T04:28:49.731Z,101470.84
2022-09-02T04:31:19.577Z,101456.38
2022-09-02T04:33:48.211Z,101431.13
2022-09-02T04:36:16.954Z,101462.09
2022-09-02T04:38:44.392Z,101414.94
2022-09-02T04:41:15.027Z,101459.94
2022-09-02T04:43:42.266Z,101430.75
2022-09-02T04:46:12.104Z,101414.13
2022-09-02T04:48:39.416Z,101423.50
2022-09-02T04:51:08.211Z,101401.44
2022-09-02T04:53:35.748Z,101425.09
2022-09-02T04:56:08.357Z,101459.97
2022-09-02T04:58:36.369Z,101406.13
2022-09-02T05:01:14.441Z,101450.69
2022-09-02T05:03:42.650Z,101458.28
2022-09-02T05:06:12.619Z,101441.84
2022-09-02T05:08:41.546Z,101443.09
2022-09-02T05:11:10.972Z,101444.75
2022-09-02T05:13:37.772Z,101432.69
2022-09-02T05:16:04.589Z,101427.69
2022-09-02T05:18:31.560Z,101425.81
2022-09-02T05:20:58.498Z,101430.56
2022-09-02T05:23:25.324Z,101439.72
2022-09-02T05:25:52.023Z,101433.72
2022-09-02T05:28:18.686Z,101422.25
2022-09-02T05:30:45.446Z,101423.63
2022-09-02T05:33:13.684Z,101399.22
2022-09-02T05:35:44.216Z,101424.69
2022-09-02T05:38:12.961Z,101419.41
2022-09-02T05:40:39.768Z,101414.72
2022-09-02T05:43:07.227Z,101402.38
2022-09-02T05:45:34.507Z,101405.19
2022-09-02T05:48:21.235Z,101401.97
2022-09-02T05:50:50.273Z,101385.56
2022-09-02T05:53:27.147Z,101383.56
2022-09-02T05:55:54.396Z,101407.94
2022-09-02T05:58:21.420Z,101393.69
2022-09-02T06:00:48.690Z,101391.69
2022-09-02T06:03:18.561Z,101378.66
2022-09-02T06:05:57.625Z,101407.16
2022-09-02T06:08:25.699Z,101341.59
2022-09-02T06:10:52.551Z,101404.41
2022-09-02T06:13:23.118Z,101364.25
2022-09-02T06:15:50.888Z,101379.50
2022-09-02T06:18:18.513Z,101378.66
2022-09-02T06:20:47.789Z,101412.59
2022-09-02T06:23:15.601Z,101399.84
2022-09-02T06:25:44.788Z,101403.25
2022-09-02T06:28:13.325Z,101372.38
2022-09-02T06:30:42.918Z,101394.63
2022-09-02T06:33:11.340Z,101357.41
2022-09-02T06:35:41.463Z,101402.34
2022-09-02T06:38:08.667Z,101361.94
2022-09-02T06:40:35.473Z,101384.97
2022-09-02T06:43:02.323Z,101377.69
2022-09-02T06:45:29.537Z,101388.38
2022-09-02T06:47:56.289Z,101359.22
2022-09-02T06:50:23.127Z,101401.06
2022-09-02T06:52:50.282Z,101341.75
2022-09-02T06:55:18.349Z,101375.13
2022-09-02T06:57:45.277Z,101370.31
2022-09-02T07:00:12.574Z,101353.16
2022-09-02T07:02:39.473Z,101328.09
2022-09-02T07:05:10.010Z,101357.13
2022-09-02T07:07:41.594Z,101346.69
2022-09-02T07:10:11.665Z,101390.38
2022-09-02T07:12:40.986Z,101354.94
2022-09-02T07:15:11.771Z,101348.50
2022-09-02T07:17:38.657Z,101339.88
2022-09-02T07:20:06.875Z,101332.81
2022-09-02T07:22:33.645Z,101349.28
2022-09-02T07:25:00.620Z,101371.19
2022-09-02T07:27:27.451Z,101314.19
2022-09-02T07:29:54.795Z,101327.53
2022-09-02T07:32:21.972Z,101361.53
2022-09-02T07:34:49.059Z,101357.88
2022-09-02T07:37:15.843Z,101345.06
2022-09-02T07:39:44.190Z,101346.09
2022-09-02T07:42:11.779Z,101380.25
2022-09-02T07:44:38.793Z,101386.56
2022-09-02T07:47:06.977Z,101356.81
2022-09-02T07:50:16.740Z,101357.66
2022-09-02T07:52:20.657Z,101354.72
2022-09-02T07:54:47.491Z,101316.00
2022-09-02T07:57:14.249Z,101313.16
2022-09-02T07:59:41.236Z,101294.97
2022-09-02T08:02:09.857Z,101316.72
2022-09-02T08:04:36.636Z,101338.69
2022-09-02T08:07:03.595Z,101323.56
2022-09-02T08:09:31.095Z,101322.00
2022-09-02T08:11:57.938Z,101357.44
2022-09-02T08:14:28.820Z,101356.59
2022-09-02T08:16:57.789Z,101328.59
2022-09-02T08:19:25.416Z,101353.34
2022-09-02T08:21:52.615Z,101323.78
2022-09-02T08:24:19.548Z,101334.72
2022-09-02T08:26:46.349Z,101319.91
2022-09-02T08:29:13.346Z,101296.91
2022-09-02T08:31:40.357Z,101307.25
2022-09-02T08:34:07.208Z,101317.72
2022-09-02T08:36:34.360Z,101309.88
2022-09-02T08:39:04.745Z,101309.25
2022-09-02T08:41:49.041Z,101294.66
2022-09-02T08:44:22.414Z,101339.00
2022-09-02T08:46:54.233Z,101323.88
2022-09-02T08:49:35.710Z,101309.94
2022-09-02T08:52:04.972Z,101346.03
2022-09-02T08:54:42.965Z,101344.03
2022-09-02T08:57:10.677Z,101289.44
2022-09-02T08:59:38.340Z,101324.41
2022-09-02T09:02:26.382Z,101346.78
2022-09-02T09:05:13.650Z,101276.97
2022-09-02T09:07:52.411Z,101332.53
2022-09-02T09:10:54.983Z,101334.63
2022-09-02T09:13:27.629Z,101334.34
2022-09-02T09:16:11.812Z,101301.59
2022-09-02T09:18:41.383Z,101322.16
2022-09-02T09:21:11.063Z,101281.28
2022-09-02T09:23:41.220Z,101327.47
2022-09-02T09:26:11.320Z,101276.06
2022-09-02T09:28:43.760Z,101312.41
2022-09-02T09:31:17.718Z,101287.28
2022-09-02T09:34:23.440Z,101312.53
2022-09-02T09:36:53.865Z,101279.63
2022-09-02T09:39:22.116Z,101279.88
2022-09-02T09:41:49.801Z,101251.53
2022-09-02T09:44:34.138Z,101313.94
2022-09-02T09:47:02.611Z,101280.22
2022-09-02T09:49:30.611Z,101299.50
2022-09-02T09:51:57.611Z,101313.22
2022-09-02T09:54:26.505Z,101304.72
2022-09-02T09:56:55.071Z,101284.28
2022-09-02T09:59:56.148Z,101297.38
2022-09-02T10:02:28.351Z,101295.84
2022-09-02T10:05:17.279Z,101232.84
2022-09-02T10:07:45.406Z,101267.84
2022-09-02T10:10:27.284Z,101256.75
2022-09-02T10:12:58.199Z,101278.94
2022-09-02T10:15:29.515Z,101267.63
2022-09-02T10:18:01.616Z,101288.88
2022-09-02T10:20:48.503Z,101290.56
2022-09-02T10:23:53.462Z,101256.88
2022-09-02T10:26:36.362Z,101234.19
2022-09-02T10:29:15.274Z,101286.13
2022-09-02T10:32:11.347Z,101283.50
2022-09-02T10:34:56.350Z,101224.47
2022-09-02T10:40:17.810Z,101228.59
2022-09-02T10:42:59.324Z,101258.38
2022-09-02T10:45:46.476Z,101263.59
2022-09-02T10:49:02.634Z,101255.00
2022-09-02T10:51:42.411Z,101262.94
2022-09-02T10:54:20.041Z,101256.28
2022-09-02T10:57:16.530Z,101260.44
2022-09-02T11:02:38.113Z,101248.88
2022-09-02T11:05:12.910Z,101260.94
2022-09-02T11:07:56.259Z,101254.78
2022-09-02T11:10:29.667Z,101256.03
2022-09-02T11:13:15.260Z,101241.34
2022-09-02T11:15:52.714Z,101215.44
2022-09-02T11:18:45.543Z,101243.47
2022-09-02T11:21:24.790Z,101253.97
2022-09-02T11:23:58.428Z,101242.09
2022-09-02T11:26:31.883Z,101244.78
2022-09-02T11:29:23.499Z,101231.66
2022-09-02T11:32:04.638Z,101204.63
2022-09-02T11:34:35.828Z,101238.41
2022-09-02T11:37:13.965Z,101225.91
2022-09-02T11:40:11.756Z,101184.78
2022-09-02T11:43:10.256Z,101225.13
2022-09-02T11:45:58.374Z,101169.47
2022-09-02T11:48:50.956Z,101217.03
2022-09-02T11:51:48.634Z,101202.44
2022-09-02T11:54:18.846Z,101204.28
2022-09-02T11:56:49.347Z,101174.34
2022-09-02T11:59:51.487Z,101202.78
2022-09-02T12:02:37.171Z,101211.50
2022-09-02T12:05:32.360Z,101202.28
2022-09-02T12:08:04.524Z,101190.69
2022-09-02T12:10:47.985Z,101192.28
2022-09-02T12:13:43.682Z,101205.53
2022-09-02T12:16:15.715Z,101195.63
2022-09-02T12:18:44.347Z,101196.13
2022-09-02T12:21:16.501Z,101196.19
2022-09-02T12:23:53.280Z,101186.53
2022-09-02T12:26:21.392Z,101171.41
2022-09-02T12:28:50.081Z,101184.63
2022-09-02T12:31:28.997Z,101183.50
2022-09-02T12:33:56.073Z,101156.22
2022-09-02T12:36:52.377Z,101188.44
2022-09-02T12:39:28.264Z,101187.59
2022-09-02T12:41:58.219Z,101181.84
2022-09-02T12:44:25.131Z,101175.38
2022-09-02T12:47:24.249Z,101167.63
2022-09-02T12:50:02.997Z,101136.78
2022-09-02T12:52:35.015Z,101148.69
2022-09-02T12:55:26.543Z,101184.59
2022-09-02T12:58:06.496Z,101138.38
2022-09-02T13:00:52.217Z,101121.78
2022-09-02T13:03:58.538Z,101168.44
2022-09-02T13:06:34.874Z,101163.63
2022-09-02T13:09:24.210Z,101163.59
2022-09-02T13:27:40.578Z,101150.88
2022-09-02T14:05:23.305Z,101106.31
2022-09-02T16:00:23.839Z,101008.63
2022-09-02T17:24:14.523Z,100916.63
2022-09-02T17:43:16.013Z,100918.09
2022-09-02T17:45:47.540Z,100911.78
2022-09-02T17:48:35.668Z,100919.69
2022-09-02T18:29:35.582Z,100913.75
2022-09-02T18:32:20.886Z,100921.25
2022-09-02T18:35:12.147Z,100917.53
2022-09-02T18:37:44.763Z,100923.88
2022-09-02T18:40:29.329Z,100916.78
2022-09-02T18:43:19.759Z,100919.72
2022-09-02T18:45:57.154Z,100892.66
2022-09-02T18:48:29.663Z,100891.88
2022-09-02T18:51:33.650Z,100927.31
2022-09-02T18:54:12.475Z,100923.13
2022-09-02T18:56:48.681Z,100906.22
2022-09-02T18:59:28.563Z,100885.88
2022-09-02T19:01:58.073Z,100893.09
2022-09-02T19:04:29.611Z,100866.34
2022-09-02T19:07:16.906Z,100913.56
2022-09-02T19:09:43.724Z,100893.25
2022-09-02T19:12:11.068Z,100901.25
2022-09-02T19:14:40.628Z,100925.22
2022-09-02T19:17:09.166Z,100939.03
2022-09-02T19:19:35.914Z,100896.88
2022-09-02T19:22:08.650Z,100928.53
2022-09-02T19:24:39.304Z,100890.66
2022-09-02T19:27:08.967Z,100939.31
2022-09-02T19:29:41.823Z,100945.47
2022-09-02T19:32:08.805Z,100899.09
2022-09-02T19:34:38.799Z,100941.72
2022-09-02T19:37:06.044Z,100917.63
2022-09-02T19:39:35.136Z,100941.44
2022-09-02T19:42:01.861Z,100916.16
2022-09-02T19:44:28.730Z,100932.00
2022-09-02T19:47:42.121Z,100931.44
2022-09-02T19:49:42.324Z,100947.75
2022-09-02T19:52:11.571Z,100923.88
2022-09-02T19:54:38.957Z,100932.56
2022-09-02T19:57:05.671Z,100952.22
2022-09-02T19:59:32.894Z,100946.16
2022-09-02T20:01:59.698Z,100918.31
2022-09-02T20:04:29.795Z,100924.94
2022-09-02T20:06:58.150Z,100937.84
2022-09-02T20:09:25.821Z,100936.75
2022-09-02T20:11:56.400Z,100936.00
2022-09-02T20:14:23.191Z,100928.44
2022-09-02T20:16:56.813Z,100928.44
2022-09-02T20:19:23.858Z,100926.53
2022-09-02T20:21:53.700Z,100910.97
2022-09-02T20:24:27.514Z,100948.00
2022-09-02T20:27:05.373Z,100947.25
2022-09-02T20:29:38.173Z,100948.47
2022-09-02T20:32:21.510Z,100936.97
2022-09-02T20:34:54.617Z,100946.19
2022-09-02T20:37:32.414Z,100945.44
2022-09-02T20:40:14.184Z,100921.19
2022-09-02T20:43:04.976Z,100926.09
2022-09-02T20:45:39.770Z,100908.41
2022-09-02T20:48:25.356Z,100951.69
2022-09-02T20:51:04.261Z,100951.88
2022-09-02T20:53:34.308Z,100948.22
2022-09-02T20:56:10.634Z,100919.66
2022-09-02T20:59:00.079Z,100929.41
2022-09-02T21:01:33.023Z,100947.06
2022-09-02T21:04:18.999Z,100944.13
2022-09-02T21:06:54.275Z,100949.72
2022-09-02T21:09:39.076Z,100952.28
2022-09-02T21:12:18.546Z,100922.84
2022-09-02T21:14:48.418Z,100935.06
2022-09-02T21:17:22.752Z,100933.09
2022-09-02T21:20:03.434Z,100958.97
2022-09-02T21:22:39.043Z,100942.75
2022-09-02T21:25:20.138Z,100954.97
2022-09-02T21:28:12.044Z,100917.63
2022-09-02T21:30:43.375Z,100957.13
2022-09-02T21:33:14.047Z,100934.91
2022-09-02T21:35:43.024Z,100938.31
2022-09-02T21:38:15.384Z,100940.88
2022-09-02T21:40:48.179Z,100952.09
2022-09-02T21:43:20.877Z,100957.59
2022-09-02T21:45:59.697Z,100949.56
2022-09-02T21:48:47.568Z,100954.84
2022-09-02T21:51:21.986Z,100931.59
2022-09-02T21:54:16.290Z,100955.97
2022-09-02T21:56:46.007Z,100949.94
2022-09-02T21:59:15.824Z,100959.38
2022-09-02T22:01:48.905Z,100955.03
2022-09-02T22:04:35.298Z,100959.66
2022-09-02T22:07:18.950Z,100951.13
2022-09-02T22:09:58.159Z,100948.78
2022-09-02T22:12:26.755Z,100959.34
2022-09-02T22:15:12.153Z,100944.63
2022-09-02T22:17:51.678Z,100938.13
2022-09-02T22:20:26.987Z,100956.47
2022-09-02T22:23:03.625Z,100964.41
2022-09-02T22:25:33.958Z,100972.88
2022-09-02T22:28:16.051Z,100969.38
2022-09-02T22:30:55.729Z,100955.69
2022-09-02T22:33:28.618Z,100954.38
2022-09-02T22:36:06.242Z,100946.88
2022-09-02T22:38:42.149Z,100955.94
2022-09-02T22:41:28.142Z,100976.00
2022-09-02T22:45:02.507Z,100966.38
2022-09-02T22:47:50.922Z,100970.75
2022-09-02T22:50:41.242Z,100962.94
2022-09-02T22:53:07.973Z,100978.25
2022-09-02T22:55:47.051Z,100989.47
2022-09-02T22:58:32.330Z,100975.13
2022-09-02T23:01:20.593Z,100978.34
2022-09-02T23:04:06.314Z,100983.09
2022-09-02T23:06:33.531Z,100970.81
2022-09-02T23:09:09.650Z,100981.75
2022-09-02T23:11:58.091Z,100982.63
2022-09-02T23:14:31.649Z,100978.81
2022-09-02T23:17:34.088Z,100969.22
2022-09-02T23:20:27.024Z,100986.16
2022-09-02T23:23:16.665Z,100980.31
2022-09-02T23:25:43.318Z,100974.91
2022-09-02T23:28:20.126Z,100969.22
2022-09-02T23:31:31.429Z,100976.66
2022-09-02T23:34:30.803Z,100983.72
2022-09-02T23:37:09.816Z,100979.66
2022-09-02T23:39:56.242Z,100979.81
2022-09-02T23:42:24.334Z,100975.97
2022-09-02T23:44:51.271Z,100988.34
2022-09-02T23:47:26.943Z,100978.09
2022-09-02T23:50:09.150Z,100958.56
2022-09-02T23:52:57.915Z,100991.41
2022-09-02T23:55:43.699Z,100997.38
2022-09-02T23:58:19.409Z,100976.47
